CheckWX is a tool to help pilots better visualize weather data.  It is not intended as a substitute for an official pre-flight weather briefing.

11:32:40 UTC

KFFL METAR
Fairfield Municipal Airport
Fairfield, Iowa, USA
Current

2 hours ago

KFFL 060955Z AUTO 10007KT 10SM BKN045 OVC055 07/06 A3003 RMK A01
Observed
Apr-6 @ 09:55 UTC
Wind
  • 100° at 7 KTS
Visibility
Flight Rules
VFR
Cloud Levels
  • Broken at 4,500' AGL
  • Overcast at 5,500' AGL
Temperature
C / 45°F
Dewpoint
C / 43°F
Humidity
93%
Altimeter
30.03" Hg
Pressure
1016.92 hPa
Previous

2 hours ago

KFFL 060935Z AUTO 15005KT 10SM FEW042 OVC055 07/05 A3004 RMK A01
Observed
Apr-6 @ 09:35 UTC
Wind
  • 150° at 5 KTS
Visibility
Flight Rules
VFR
Cloud Levels
  • Few at 4,200' AGL
  • Overcast at 5,500' AGL
Temperature
C / 45°F
Dewpoint
C / 41°F
Humidity
87%
Altimeter
30.04" Hg
Pressure
1017.32 hPa
Previous

2 hours ago

KFFL 060915Z AUTO 15004KT 10SM BKN042 BKN050 05/04 A3005 RMK A01
Observed
Apr-6 @ 09:15 UTC
Wind
  • 150° at 4 KTS
Visibility
Flight Rules
VFR
Cloud Levels
  • Broken at 4,200' AGL
  • Broken at 5,000' AGL
Temperature
C / 41°F
Dewpoint
C / 39°F
Humidity
93%
Altimeter
30.05" Hg
Pressure
1017.62 hPa